Bruck An Der Mur, Austria
Current Conditions -  °F | °C
As of 4:20 AM on Thursday 18 Dec 2014 (Local Time) from LOWG Reporting Station
Moderate Fog Moderate Fog  
Wind Chill: 34°   Ceiling: 100
Heat Index: 34°   Visibility: 0.18mi
Dew Point: 34°   Wind: 1mph
Humidity: 100%   Direction: NA
Pressure: 29.91"   Gusts: NA
Location:  47.42°N, 15.27°E
Report Text: LOWG 180220Z AUTO VRB01KT 0300 R17/0375N R35/0350N FG FEW000 BKN001 01/01 Q1013
Loading
Personal Weather Stations






























Interactive Weather Map New forecast layout! Learn more

10-Day Weather Forecast

Advertisements
Track Severe Weather on mobile